createdAt,value
2022-11-12T00:02:18.472Z,12.40
2022-11-12T00:05:23.337Z,12.40
2022-11-12T00:08:28.063Z,12.40
2022-11-12T00:11:32.503Z,12.30
2022-11-12T00:14:36.863Z,12.10
2022-11-12T00:17:41.272Z,12.30
2022-11-12T00:20:45.835Z,12.40
2022-11-12T00:23:49.973Z,12.50
2022-11-12T00:26:54.192Z,12.40
2022-11-12T00:29:58.803Z,12.30
2022-11-12T00:33:04.324Z,12.40
2022-11-12T00:36:09.968Z,12.20
2022-11-12T00:39:14.103Z,12.30
2022-11-12T00:42:18.416Z,12.20
2022-11-12T00:45:22.698Z,12.10
2022-11-12T00:48:27.608Z,12.10
2022-11-12T00:51:32.420Z,12.00
2022-11-12T00:54:36.764Z,11.70
2022-11-12T00:57:41.192Z,11.90
2022-11-12T01:00:45.673Z,11.90
2022-11-12T01:03:50.317Z,12.00
2022-11-12T01:06:55.105Z,11.90
2022-11-12T01:09:59.520Z,11.70
2022-11-12T01:13:16.176Z,11.80
2022-11-12T01:16:22.904Z,11.80
2022-11-12T01:19:27.017Z,12.00
2022-11-12T01:22:31.145Z,12.10
2022-11-12T01:25:38.396Z,12.20
2022-11-12T01:28:43.566Z,12.30
2022-11-12T01:31:47.833Z,12.20
2022-11-12T01:34:53.312Z,12.20
2022-11-12T01:37:57.671Z,12.20
2022-11-12T01:41:02.267Z,12.10
2022-11-12T01:44:26.845Z,12.10
2022-11-12T01:47:34.164Z,11.80
2022-11-12T01:50:40.470Z,11.70
2022-11-12T01:53:49.443Z,11.40
2022-11-12T01:56:57.793Z,11.30
2022-11-12T02:00:06.598Z,11.40
2022-11-12T02:03:18.795Z,11.80
2022-11-12T02:06:25.017Z,11.90
2022-11-12T02:09:30.852Z,11.90
2022-11-12T02:12:54.858Z,12.00
2022-11-12T02:15:59.611Z,12.00
2022-11-12T02:19:05.702Z,11.80
2022-11-12T02:22:09.961Z,11.70
2022-11-12T02:25:19.408Z,11.60
2022-11-12T02:28:23.935Z,11.60
2022-11-12T02:31:28.229Z,11.50
2022-11-12T02:34:32.615Z,11.60
2022-11-12T02:37:37.207Z,11.60
2022-11-12T02:40:41.633Z,11.60
2022-11-12T02:43:45.853Z,11.60
2022-11-12T02:46:49.934Z,11.50
2022-11-12T02:49:54.767Z,11.50
2022-11-12T02:52:59.019Z,11.60
2022-11-12T02:56:04.021Z,11.60
2022-11-12T02:59:07.857Z,11.60
2022-11-12T03:02:12.403Z,11.60
2022-11-12T03:05:16.761Z,11.60
2022-11-12T03:08:21.454Z,11.60
2022-11-12T03:11:25.971Z,11.70
2022-11-12T03:14:30.144Z,11.50
2022-11-12T03:17:37.373Z,11.50
2022-11-12T03:20:44.353Z,11.60
2022-11-12T03:23:48.494Z,11.60
2022-11-12T03:26:52.935Z,11.60
2022-11-12T03:29:58.872Z,11.60
2022-11-12T03:33:04.505Z,11.60
2022-11-12T03:36:08.846Z,11.70
2022-11-12T03:39:13.355Z,11.70
2022-11-12T03:42:17.665Z,11.70
2022-11-12T03:45:23.437Z,11.70
2022-11-12T03:48:28.197Z,11.70
2022-11-12T03:51:32.954Z,11.80
2022-11-12T03:54:40.536Z,11.80
2022-11-12T03:57:45.372Z,11.70
2022-11-12T04:00:49.510Z,11.70
2022-11-12T04:03:53.929Z,11.70
2022-11-12T04:07:16.909Z,11.60
2022-11-12T04:10:21.342Z,11.70
2022-11-12T04:13:28.339Z,11.40
2022-11-12T04:16:50.979Z,11.60
2022-11-12T04:20:13.941Z,11.70
2022-11-12T04:23:18.318Z,11.70
2022-11-12T04:26:25.496Z,11.60
2022-11-12T04:29:48.021Z,11.60
2022-11-12T04:32:57.249Z,11.50
2022-11-12T04:36:01.481Z,11.50
2022-11-12T04:39:05.959Z,11.40
2022-11-12T04:42:29.593Z,11.50
2022-11-12T04:45:34.262Z,11.40
2022-11-12T04:48:38.533Z,11.40
2022-11-12T04:52:01.390Z,11.50
2022-11-12T04:55:08.478Z,11.50
2022-11-12T04:58:12.977Z,11.50
2022-11-12T05:01:17.139Z,11.50
2022-11-12T05:04:22.059Z,11.30
2022-11-12T05:07:26.878Z,11.40
2022-11-12T05:10:31.613Z,11.40
2022-11-12T05:13:35.883Z,11.50
2022-11-12T05:16:40.168Z,11.50
2022-11-12T05:19:44.923Z,11.60
2022-11-12T05:23:05.136Z,11.70
2022-11-12T05:26:10.225Z,11.70
2022-11-12T05:29:14.924Z,11.60
2022-11-12T05:32:19.469Z,11.60
2022-11-12T05:35:23.854Z,11.50
2022-11-12T05:38:28.857Z,11.60
2022-11-12T05:41:58.009Z,11.60
2022-11-12T05:45:00.288Z,11.70
2022-11-12T05:48:06.355Z,11.70
2022-11-12T05:51:14.145Z,11.60
2022-11-12T05:54:20.219Z,11.70
2022-11-12T05:57:27.653Z,11.90
2022-11-12T06:00:32.049Z,12.10
2022-11-12T06:03:36.885Z,12.20
2022-11-12T06:06:43.881Z,12.20
2022-11-12T06:09:48.303Z,12.20
2022-11-12T06:12:52.637Z,12.20
2022-11-12T06:15:58.239Z,12.20
2022-11-12T06:19:02.807Z,12.20
2022-11-12T06:22:07.088Z,12.20
2022-11-12T06:25:11.658Z,12.10
2022-11-12T06:28:15.762Z,12.00
2022-11-12T06:31:20.763Z,11.90
2022-11-12T06:34:25.188Z,11.90
2022-11-12T06:37:29.850Z,11.90
2022-11-12T06:40:35.442Z,12.00
2022-11-12T06:43:40.595Z,12.00
2022-11-12T06:46:44.880Z,12.10
2022-11-12T06:49:49.063Z,12.20
2022-11-12T06:52:58.786Z,12.20
2022-11-12T06:56:06.956Z,12.40
2022-11-12T06:59:11.996Z,12.60
2022-11-12T07:02:20.131Z,12.60
2022-11-12T07:05:25.691Z,12.10
2022-11-12T07:08:30.613Z,12.20
2022-11-12T07:11:35.397Z,12.40
2022-11-12T07:14:39.880Z,12.60
2022-11-12T07:17:47.171Z,12.60
2022-11-12T07:20:51.603Z,12.70
2022-11-12T07:23:56.128Z,12.70
2022-11-12T07:27:00.272Z,12.70
2022-11-12T07:30:06.257Z,12.70
2022-11-12T07:33:10.754Z,12.60
2022-11-12T07:36:18.329Z,12.70
2022-11-12T07:39:23.063Z,12.70
2022-11-12T07:42:27.701Z,12.40
2022-11-12T07:45:32.346Z,12.30
2022-11-12T07:48:37.239Z,12.20
2022-11-12T07:51:41.628Z,11.60
2022-11-12T07:54:46.021Z,11.90
2022-11-12T07:57:50.855Z,12.50
2022-11-12T08:00:56.384Z,12.90
2022-11-12T08:04:01.954Z,13.00
2022-11-12T08:07:06.979Z,13.30
2022-11-12T08:10:11.857Z,13.10
2022-11-12T08:13:16.298Z,13.10
2022-11-12T08:16:20.949Z,12.80
2022-11-12T08:19:25.576Z,13.20
2022-11-12T08:22:32.198Z,13.40
2022-11-12T08:25:37.293Z,13.50
2022-11-12T08:28:42.185Z,12.30
2022-11-12T08:31:48.287Z,11.90
2022-11-12T08:34:53.274Z,12.10
2022-11-12T08:38:01.457Z,12.10
2022-11-12T08:41:10.366Z,12.40
2022-11-12T08:44:14.971Z,12.90
2022-11-12T08:47:19.755Z,12.80
2022-11-12T08:50:26.381Z,13.30
2022-11-12T08:53:31.490Z,13.20
2022-11-12T08:56:48.766Z,13.20
2022-11-12T08:59:53.498Z,13.40
2022-11-12T09:03:01.601Z,13.60
2022-11-12T09:06:06.376Z,13.60
2022-11-12T09:09:13.047Z,13.90
2022-11-12T09:12:19.905Z,13.10
2022-11-12T09:15:40.692Z,13.50
2022-11-12T09:18:45.124Z,13.80
2022-11-12T09:21:50.154Z,14.00
2022-11-12T09:24:55.362Z,14.20
2022-11-12T09:28:10.124Z,14.50
2022-11-12T09:31:14.421Z,14.80
2022-11-12T09:34:20.337Z,14.90
2022-11-12T09:37:25.009Z,15.00
2022-11-12T09:40:52.486Z,15.10
2022-11-12T09:44:09.049Z,14.60
2022-11-12T09:47:38.063Z,15.00
2022-11-12T09:50:53.977Z,15.20
2022-11-12T09:54:20.742Z,15.20
2022-11-12T09:57:24.718Z,14.90
2022-11-12T10:00:30.210Z,15.00
2022-11-12T10:04:04.401Z,15.20
2022-11-12T10:07:36.677Z,15.30
2022-11-12T10:11:02.223Z,14.80
2022-11-12T10:14:21.420Z,14.90
2022-11-12T10:17:43.105Z,15.30
2022-11-12T10:20:59.277Z,15.30
2022-11-12T10:24:09.569Z,15.00
2022-11-12T10:27:19.115Z,15.40
2022-11-12T10:30:25.307Z,15.80
2022-11-12T10:33:32.054Z,15.60
2022-11-12T10:36:38.410Z,15.60
2022-11-12T10:39:47.204Z,15.30
2022-11-12T10:43:08.725Z,15.60
2022-11-12T10:46:40.020Z,15.50
2022-11-12T10:49:45.130Z,15.50
2022-11-12T10:53:07.112Z,15.10
2022-11-12T10:56:31.233Z,15.50
2022-11-12T10:59:35.752Z,15.00
2022-11-12T11:02:53.622Z,14.70
2022-11-12T11:06:07.744Z,14.80
2022-11-12T11:09:19.349Z,15.60
2022-11-12T11:12:30.518Z,15.60
2022-11-12T11:15:36.106Z,16.00
2022-11-12T11:18:45.484Z,15.60
2022-11-12T11:22:01.753Z,15.70
2022-11-12T11:25:12.564Z,15.80
2022-11-12T11:28:26.559Z,15.90
2022-11-12T11:32:04.955Z,15.30
2022-11-12T11:35:30.740Z,15.60
2022-11-12T11:38:41.067Z,15.80
2022-11-12T11:42:05.407Z,15.70
2022-11-12T11:45:17.784Z,15.20
2022-11-12T11:48:47.343Z,15.70
2022-11-12T11:52:19.350Z,16.00
2022-11-12T11:55:30.823Z,15.40
2022-11-12T11:58:55.625Z,15.30
2022-11-12T12:02:36.649Z,15.00
2022-11-12T12:06:05.366Z,16.00
2022-11-12T12:09:33.802Z,16.30
2022-11-12T12:13:08.925Z,16.60
2022-11-12T12:16:40.553Z,16.00
2022-11-12T12:19:56.992Z,16.40
2022-11-12T12:23:11.291Z,16.80
2022-11-12T12:26:27.450Z,16.90
2022-11-12T12:29:41.236Z,16.90
2022-11-12T12:33:32.497Z,17.10
2022-11-12T12:36:42.404Z,17.00
2022-11-12T12:40:19.199Z,17.10
2022-11-12T12:43:54.337Z,17.50
2022-11-12T12:47:01.207Z,17.40
2022-11-12T12:50:12.659Z,17.50
2022-11-12T12:53:29.068Z,17.60
2022-11-12T12:56:45.541Z,17.30
2022-11-12T12:59:49.744Z,17.30
2022-11-12T13:02:54.685Z,17.50
2022-11-12T13:06:26.073Z,17.20
2022-11-12T13:09:30.211Z,16.30
2022-11-12T13:13:27.598Z,16.00
2022-11-12T13:16:51.014Z,16.80
2022-11-12T13:19:58.235Z,16.40
2022-11-12T13:23:03.641Z,16.30
2022-11-12T13:26:45.732Z,16.20
2022-11-12T13:29:50.973Z,16.50
2022-11-12T13:32:56.841Z,17.00
2022-11-12T13:36:25.744Z,17.30
2022-11-12T13:39:35.008Z,16.90
2022-11-12T13:42:49.381Z,16.90
2022-11-12T13:46:24.418Z,17.00
2022-11-12T13:49:30.104Z,15.50
2022-11-12T13:52:35.252Z,16.20
2022-11-12T13:55:49.203Z,16.60
2022-11-12T13:58:54.151Z,16.80
2022-11-12T14:02:05.388Z,17.00
2022-11-12T14:05:25.885Z,16.90
2022-11-12T14:08:40.897Z,16.80
2022-11-12T14:12:09.598Z,16.00
2022-11-12T14:15:26.194Z,15.60
2022-11-12T14:18:33.341Z,15.60
2022-11-12T14:21:38.104Z,15.60
2022-11-12T14:24:43.029Z,15.50
2022-11-12T14:27:49.042Z,15.40
2022-11-12T14:30:54.358Z,15.60
2022-11-12T14:34:20.097Z,15.70
2022-11-12T14:37:53.194Z,15.50
2022-11-12T14:41:02.217Z,16.10
2022-11-12T14:44:12.991Z,16.00
2022-11-12T14:47:18.948Z,15.60
2022-11-12T14:50:37.377Z,15.30
2022-11-12T14:53:53.103Z,15.30
2022-11-12T14:57:00.670Z,15.80
2022-11-12T15:00:30.146Z,16.10
2022-11-12T15:03:35.545Z,16.10
2022-11-12T15:06:41.272Z,15.00
2022-11-12T15:09:46.321Z,16.00
2022-11-12T15:12:51.204Z,15.80
2022-11-12T15:16:07.445Z,15.60
2022-11-12T15:19:18.821Z,15.60
2022-11-12T15:22:23.335Z,15.30
2022-11-12T15:25:30.780Z,15.50
2022-11-12T15:28:35.224Z,15.80
2022-11-12T15:31:58.532Z,16.20
2022-11-12T15:35:03.550Z,16.30
2022-11-12T15:38:35.311Z,16.30
2022-11-12T15:41:40.575Z,15.70
2022-11-12T15:44:46.108Z,15.50
2022-11-12T15:47:50.566Z,15.60
2022-11-12T15:50:55.388Z,15.70
2022-11-12T15:53:59.908Z,15.50
2022-11-12T15:57:04.721Z,15.80
2022-11-12T16:00:19.725Z,15.60
2022-11-12T16:03:24.809Z,15.30
2022-11-12T16:06:29.481Z,15.10
2022-11-12T16:09:34.738Z,15.50
2022-11-12T16:12:39.454Z,15.50
2022-11-12T16:15:43.908Z,15.50
2022-11-12T16:18:48.523Z,15.40
2022-11-12T16:21:53.139Z,15.20
2022-11-12T16:24:57.977Z,15.40
2022-11-12T16:28:05.275Z,15.20
2022-11-12T16:31:10.275Z,15.10
2022-11-12T16:34:14.611Z,14.90
2022-11-12T16:37:19.480Z,14.90
2022-11-12T16:40:27.492Z,14.90
2022-11-12T16:43:33.436Z,14.90
2022-11-12T16:46:40.282Z,14.80
2022-11-12T16:49:44.622Z,14.90
2022-11-12T16:52:49.934Z,15.20
2022-11-12T16:55:56.629Z,14.90
2022-11-12T16:59:01.086Z,14.90
2022-11-12T17:02:14.139Z,15.00
2022-11-12T17:05:20.806Z,15.20
2022-11-12T17:08:33.713Z,14.80
2022-11-12T17:11:38.543Z,14.30
2022-11-12T17:14:42.743Z,14.20
2022-11-12T17:17:47.234Z,14.30
2022-11-12T17:20:54.109Z,14.40
2022-11-12T17:23:58.680Z,14.70
2022-11-12T17:27:02.862Z,14.80
2022-11-12T17:30:07.766Z,14.90
2022-11-12T17:33:12.340Z,15.00
2022-11-12T17:36:25.716Z,15.10
2022-11-12T17:39:29.863Z,15.10
2022-11-12T17:42:34.101Z,15.10
2022-11-12T17:45:38.646Z,15.00
2022-11-12T17:48:43.355Z,14.80
2022-11-12T17:51:47.844Z,14.30
2022-11-12T17:54:52.717Z,14.10
2022-11-12T17:57:56.747Z,14.00
2022-11-12T18:01:11.072Z,13.90
2022-11-12T18:04:15.463Z,13.90
2022-11-12T18:07:20.074Z,14.00
2022-11-12T18:10:24.516Z,14.00
2022-11-12T18:13:29.275Z,14.40
2022-11-12T18:16:33.933Z,14.70
2022-11-12T18:19:38.391Z,14.60
2022-11-12T18:22:45.029Z,14.90
2022-11-12T18:25:49.803Z,14.80
2022-11-12T18:28:55.562Z,14.70
2022-11-12T18:32:00.212Z,14.70
2022-11-12T18:35:05.293Z,14.70
2022-11-12T18:38:09.340Z,14.70
2022-11-12T18:41:16.167Z,14.60
2022-11-12T18:44:25.788Z,14.60
2022-11-12T18:47:30.615Z,14.60
2022-11-12T18:50:35.281Z,14.50
2022-11-12T18:53:40.313Z,14.40
2022-11-12T18:56:45.144Z,14.40
2022-11-12T18:59:52.091Z,14.30
2022-11-12T19:02:56.688Z,14.20
2022-11-12T19:06:05.094Z,14.10
2022-11-12T19:09:11.780Z,14.10
2022-11-12T19:12:16.158Z,14.20
2022-11-12T19:15:25.502Z,14.10
2022-11-12T19:18:31.411Z,14.10
2022-11-12T19:21:35.434Z,14.30
2022-11-12T19:24:39.936Z,14.20
2022-11-12T19:27:44.387Z,14.10
2022-11-12T19:30:49.061Z,14.30
2022-11-12T19:33:53.137Z,14.40
2022-11-12T19:37:26.786Z,14.40
2022-11-12T19:40:21.993Z,14.40
2022-11-12T19:43:26.624Z,14.30
2022-11-12T19:46:32.484Z,14.20
2022-11-12T19:49:36.704Z,14.30
2022-11-12T19:52:41.214Z,14.30
2022-11-12T19:55:45.650Z,14.20
2022-11-12T19:58:50.295Z,14.20
2022-11-12T20:01:54.577Z,14.20
2022-11-12T20:04:59.155Z,14.10
2022-11-12T20:08:04.998Z,14.10
2022-11-12T20:11:10.131Z,14.10
2022-11-12T20:14:14.503Z,13.90
2022-11-12T20:17:20.077Z,13.90
2022-11-12T20:20:24.345Z,13.70
2022-11-12T20:23:29.404Z,13.70
2022-11-12T20:26:34.170Z,13.60
2022-11-12T20:29:38.498Z,13.40
2022-11-12T20:32:43.053Z,13.60
2022-11-12T20:35:47.429Z,13.70
2022-11-12T20:38:53.384Z,13.90
2022-11-12T20:41:57.757Z,13.80
2022-11-12T20:45:02.185Z,13.80
2022-11-12T20:48:07.739Z,13.70
2022-11-12T20:51:23.818Z,13.70
2022-11-12T20:54:29.091Z,13.90
2022-11-12T20:57:33.781Z,13.80
2022-11-12T21:00:38.957Z,13.60
2022-11-12T21:03:44.647Z,13.80
2022-11-12T21:06:48.633Z,14.00
2022-11-12T21:09:52.908Z,14.00
2022-11-12T21:12:57.707Z,14.00
2022-11-12T21:16:02.867Z,14.00
2022-11-12T21:19:08.416Z,13.60
2022-11-12T21:22:14.837Z,13.40
2022-11-12T21:25:19.687Z,13.70
2022-11-12T21:28:24.062Z,14.00
2022-11-12T21:31:30.421Z,14.00
2022-11-12T21:34:34.916Z,14.10
2022-11-12T21:37:39.408Z,14.10
2022-11-12T21:40:43.766Z,14.10
2022-11-12T21:43:49.556Z,14.10
2022-11-12T21:46:54.060Z,13.90
2022-11-12T21:49:58.812Z,13.90
2022-11-12T21:53:03.196Z,13.80
2022-11-12T21:56:11.889Z,13.80
2022-11-12T21:59:16.641Z,13.60
2022-11-12T22:02:21.244Z,13.50
2022-11-12T22:05:25.593Z,13.40
2022-11-12T22:08:30.833Z,13.40
2022-11-12T22:11:35.629Z,13.50
2022-11-12T22:14:41.303Z,13.50
2022-11-12T22:17:46.102Z,13.50
2022-11-12T22:21:01.837Z,13.50
2022-11-12T22:24:06.849Z,13.40
2022-11-12T22:27:11.225Z,13.50
2022-11-12T22:30:16.349Z,13.50
2022-11-12T22:33:20.542Z,13.30
2022-11-12T22:36:27.249Z,13.20
2022-11-12T22:39:31.755Z,13.10
2022-11-12T22:42:36.090Z,13.10
2022-11-12T22:45:40.612Z,13.10
2022-11-12T22:48:46.453Z,13.20
2022-11-12T22:51:50.775Z,13.00
2022-11-12T22:54:55.214Z,12.90
2022-11-12T22:58:07.913Z,12.90
2022-11-12T23:01:28.660Z,13.00
2022-11-12T23:04:33.348Z,13.10
2022-11-12T23:07:37.645Z,13.00
2022-11-12T23:10:45.786Z,12.50
2022-11-12T23:13:54.642Z,12.40
2022-11-12T23:17:00.235Z,12.60
2022-11-12T23:20:05.227Z,12.90
2022-11-12T23:23:09.534Z,12.80
2022-11-12T23:26:17.538Z,12.40
2022-11-12T23:29:22.145Z,12.40
2022-11-12T23:32:26.807Z,12.00
2022-11-12T23:35:30.957Z,11.80
2022-11-12T23:38:35.767Z,11.80
2022-11-12T23:41:40.072Z,12.20
2022-11-12T23:44:46.508Z,12.50
2022-11-12T23:47:50.892Z,12.60
2022-11-12T23:51:05.721Z,12.20
2022-11-12T23:54:11.051Z,12.10
2022-11-12T23:57:15.260Z,12.40
